createdAt,value
2017-07-30T00:00:23.517Z,18.17
2017-07-30T00:01:32.730Z,18.18
2017-07-30T00:02:42.258Z,18.14
2017-07-30T00:03:51.141Z,18.18
2017-07-30T00:05:00.651Z,18.15
2017-07-30T00:06:10.181Z,18.03
2017-07-30T00:07:19.386Z,18.05
2017-07-30T00:08:28.596Z,18.11
2017-07-30T00:09:37.800Z,18.1
2017-07-30T00:10:48.028Z,18.1
2017-07-30T00:11:57.883Z,18.07
2017-07-30T00:13:07.419Z,18.17
2017-07-30T00:14:16.959Z,18.1
2017-07-30T00:15:26.488Z,18.15
2017-07-30T00:16:35.848Z,18.18
2017-07-30T00:17:45.056Z,18.18
2017-07-30T00:18:54.265Z,18.17
2017-07-30T00:20:03.795Z,18.14
2017-07-30T00:21:13.719Z,18.15
2017-07-30T00:22:22.692Z,18.14
2017-07-30T00:23:32.869Z,18.14
2017-07-30T00:24:42.075Z,18.11
2017-07-30T00:25:51.608Z,18.18
2017-07-30T00:27:01.137Z,18.11
2017-07-30T00:28:10.497Z,18.11
2017-07-30T00:29:20.358Z,18.17
2017-07-30T00:30:29.562Z,18.07
2017-07-30T00:31:38.783Z,18.12
2017-07-30T00:32:47.993Z,18.11
2017-07-30T00:33:57.672Z,18.07
2017-07-30T00:35:07.204Z,18.07
2017-07-30T00:36:16.739Z,18.14
2017-07-30T00:37:26.273Z,18.1
2017-07-30T00:38:35.480Z,18.14
2017-07-30T00:39:44.837Z,18.1
2017-07-30T00:40:54.047Z,18.08
2017-07-30T00:42:03.269Z,18.08
2017-07-30T00:43:12.481Z,18.14
2017-07-30T00:44:22.019Z,18.1
2017-07-30T00:45:31.698Z,18.12
2017-07-30T00:46:41.227Z,18.11
2017-07-30T00:47:50.755Z,18.14
2017-07-30T00:49:00.290Z,18.1
2017-07-30T00:50:09.496Z,18.12
2017-07-30T00:51:19.027Z,18
2017-07-30T00:52:28.236Z,18.07
2017-07-30T00:53:37.449Z,18.08
2017-07-30T00:54:46.653Z,18.05
2017-07-30T00:55:56.183Z,18.1
2017-07-30T00:57:05.725Z,18.08
2017-07-30T00:58:14.639Z,18.11
2017-07-30T00:59:24.171Z,17.97
2017-07-30T01:00:33.697Z,18.1
2017-07-30T01:01:43.232Z,18
2017-07-30T01:02:52.585Z,18.03
2017-07-30T01:04:02.438Z,18.08
2017-07-30T01:05:11.968Z,18.05
2017-07-30T01:06:21.174Z,18.07
2017-07-30T01:07:30.380Z,18.15
2017-07-30T01:08:39.735Z,18.2
2017-07-30T01:09:49.270Z,18.07
2017-07-30T01:10:59.197Z,18.2
2017-07-30T01:12:08.725Z,18.14
2017-07-30T01:13:17.611Z,18.15
2017-07-30T01:14:26.790Z,18.11
2017-07-30T01:15:35.671Z,18.15
2017-07-30T01:16:45.199Z,18.12
2017-07-30T01:17:54.405Z,18.1
2017-07-30T01:19:03.931Z,18.08
2017-07-30T01:20:13.564Z,18.08
2017-07-30T01:21:22.767Z,18.07
2017-07-30T01:22:31.982Z,18.02
2017-07-30T01:23:41.187Z,18.08
2017-07-30T01:24:50.720Z,18.08
2017-07-30T01:26:00.245Z,18.03
2017-07-30T01:27:09.450Z,18.08
2017-07-30T01:28:18.659Z,18.07
2017-07-30T01:29:27.861Z,18
2017-07-30T01:30:37.077Z,18.02
2017-07-30T01:31:46.383Z,17.95
2017-07-30T01:32:55.590Z,18
2017-07-30T01:34:05.483Z,17.99
2017-07-30T01:35:15.062Z,17.97
2017-07-30T01:36:23.945Z,17.96
2017-07-30T01:37:36.582Z,17.96
2017-07-30T01:38:45.467Z,17.89
2017-07-30T01:39:54.702Z,17.93
2017-07-30T01:41:03.592Z,17.84
2017-07-30T01:42:13.118Z,17.92
2017-07-30T01:43:22.153Z,17.81
2017-07-30T01:44:31.687Z,17.9
2017-07-30T01:45:40.913Z,17.81
2017-07-30T01:46:50.766Z,17.93
2017-07-30T01:47:59.653Z,17.81
2017-07-30T01:49:09.380Z,17.77
2017-07-30T01:50:18.908Z,17.81
2017-07-30T01:51:28.442Z,17.71
2017-07-30T01:52:37.979Z,17.77
2017-07-30T01:53:47.184Z,17.62
2017-07-30T01:54:56.866Z,17.75
2017-07-30T01:56:06.078Z,17.68
2017-07-30T01:57:14.963Z,17.68
2017-07-30T01:58:24.188Z,17.66
2017-07-30T01:59:33.071Z,17.72
2017-07-30T02:00:42.801Z,17.63
2017-07-30T02:01:52.331Z,17.59
2017-07-30T02:03:01.861Z,17.66
2017-07-30T02:04:11.080Z,17.68
2017-07-30T02:05:20.287Z,17.62
2017-07-30T02:06:29.976Z,17.51
2017-07-30T02:07:39.185Z,17.59
2017-07-30T02:08:48.392Z,17.55
2017-07-30T02:09:57.596Z,17.58
2017-07-30T02:11:06.801Z,17.58
2017-07-30T02:12:16.481Z,17.58
2017-07-30T02:13:26.340Z,17.54
2017-07-30T02:14:35.879Z,17.56
2017-07-30T02:15:44.762Z,17.62
2017-07-30T02:16:53.967Z,17.62
2017-07-30T02:18:03.575Z,17.58
2017-07-30T02:19:13.137Z,17.58
2017-07-30T02:20:22.340Z,17.56
2017-07-30T02:21:31.224Z,17.56
2017-07-30T02:22:40.105Z,17.59
2017-07-30T02:23:49.684Z,17.62
2017-07-30T02:24:58.563Z,17.58
2017-07-30T02:26:08.093Z,17.52
2017-07-30T02:27:17.308Z,17.56
2017-07-30T02:28:26.199Z,17.54
2017-07-30T02:29:35.878Z,17.62
2017-07-30T02:30:45.093Z,17.54
2017-07-30T02:31:54.628Z,17.52
2017-07-30T02:33:03.842Z,17.54
2017-07-30T02:34:13.701Z,17.63
2017-07-30T02:35:23.702Z,17.52
2017-07-30T02:36:33.560Z,17.63
2017-07-30T02:37:43.100Z,17.52
2017-07-30T02:38:52.630Z,17.54
2017-07-30T02:40:02.162Z,17.54
2017-07-30T02:41:12.024Z,17.54
2017-07-30T02:42:21.874Z,17.58
2017-07-30T02:43:31.078Z,17.52
2017-07-30T02:44:40.929Z,17.54
2017-07-30T02:45:50.784Z,17.59
2017-07-30T02:47:00.615Z,17.63
2017-07-30T02:48:09.824Z,17.58
2017-07-30T02:49:19.354Z,17.58
2017-07-30T02:50:29.533Z,17.56
2017-07-30T02:51:39.076Z,17.54
2017-07-30T02:52:48.432Z,17.55
2017-07-30T02:53:57.964Z,17.55
2017-07-30T02:55:07.496Z,17.56
2017-07-30T02:56:16.706Z,17.58
2017-07-30T02:57:26.234Z,17.55
2017-07-30T02:58:35.264Z,17.54
2017-07-30T02:59:44.796Z,17.56
2017-07-30T03:00:54.325Z,17.49
2017-07-30T03:02:03.207Z,17.66
2017-07-30T03:03:13.056Z,17.59
2017-07-30T03:04:22.310Z,17.66
2017-07-30T03:05:31.194Z,17.66
2017-07-30T03:06:40.078Z,17.63
2017-07-30T03:07:50.252Z,17.63
2017-07-30T03:08:59.460Z,17.63
2017-07-30T03:10:09.463Z,17.64
2017-07-30T03:11:18.669Z,17.7
2017-07-30T03:12:27.549Z,17.68
2017-07-30T03:13:36.754Z,17.63
2017-07-30T03:14:45.998Z,17.68
2017-07-30T03:15:55.300Z,17.66
2017-07-30T03:17:04.184Z,17.64
2017-07-30T03:18:13.391Z,17.7
2017-07-30T03:19:22.599Z,17.64
2017-07-30T03:20:32.161Z,17.63
2017-07-30T03:21:41.687Z,17.59
2017-07-30T03:22:50.926Z,17.68
2017-07-30T03:24:00.135Z,17.7
2017-07-30T03:25:09.342Z,17.7
2017-07-30T03:26:19.206Z,17.64
2017-07-30T03:27:29.211Z,17.63
2017-07-30T03:28:38.416Z,17.62
2017-07-30T03:29:47.623Z,17.7
2017-07-30T03:30:57.158Z,17.66
2017-07-30T03:32:06.705Z,17.68
2017-07-30T03:33:16.282Z,17.7
2017-07-30T03:34:26.136Z,17.66
2017-07-30T03:35:35.667Z,17.71
2017-07-30T03:36:45.193Z,17.66
2017-07-30T03:37:54.399Z,17.66
2017-07-30T03:39:03.586Z,17.68
2017-07-30T03:40:13.113Z,17.68
2017-07-30T03:41:21.997Z,17.68
2017-07-30T03:42:32.176Z,17.68
2017-07-30T03:43:41.705Z,17.71
2017-07-30T03:44:51.156Z,17.68
2017-07-30T03:46:00.037Z,17.71
2017-07-30T03:47:09.579Z,17.62
2017-07-30T03:48:18.784Z,17.7
2017-07-30T03:49:28.311Z,17.71
2017-07-30T03:50:37.569Z,17.71
2017-07-30T03:51:46.778Z,17.66
2017-07-30T03:52:55.990Z,17.66
2017-07-30T03:54:05.197Z,17.71
2017-07-30T03:55:14.401Z,17.74
2017-07-30T03:56:23.757Z,17.72
2017-07-30T03:57:33.294Z,17.68
2017-07-30T03:58:42.826Z,17.68
2017-07-30T03:59:52.686Z,17.72
2017-07-30T04:01:02.219Z,17.7
2017-07-30T04:02:11.898Z,17.75
2017-07-30T04:03:21.427Z,17.78
2017-07-30T04:04:30.632Z,17.77
2017-07-30T04:05:39.837Z,17.66
2017-07-30T04:06:49.086Z,17.79
2017-07-30T04:07:58.270Z,17.72
2017-07-30T04:09:07.487Z,17.75
2017-07-30T04:10:16.699Z,17.79
2017-07-30T04:11:25.911Z,17.77
2017-07-30T04:12:35.117Z,17.75
2017-07-30T04:13:44.145Z,17.79
2017-07-30T04:14:53.351Z,17.75
2017-07-30T04:16:02.880Z,17.74
2017-07-30T04:17:12.414Z,17.75
2017-07-30T04:18:21.618Z,17.66
2017-07-30T04:19:30.980Z,17.64
2017-07-30T04:20:40.835Z,17.66
2017-07-30T04:21:50.711Z,17.74
2017-07-30T04:23:00.570Z,17.71
2017-07-30T04:24:09.455Z,17.72
2017-07-30T04:25:18.811Z,17.81
2017-07-30T04:26:27.694Z,17.79
2017-07-30T04:27:36.581Z,17.75
2017-07-30T04:28:45.784Z,17.78
2017-07-30T04:29:54.665Z,17.78
2017-07-30T04:31:04.996Z,17.77
2017-07-30T04:32:14.551Z,17.93
2017-07-30T04:33:24.090Z,17.9
2017-07-30T04:34:33.630Z,17.86
2017-07-30T04:35:42.515Z,17.89
2017-07-30T04:36:51.412Z,17.89
2017-07-30T04:38:00.614Z,18
2017-07-30T04:39:09.505Z,18
2017-07-30T04:40:18.720Z,18.02
2017-07-30T04:41:28.572Z,18.02
2017-07-30T04:42:38.184Z,18.02
2017-07-30T04:43:47.068Z,18.03
2017-07-30T04:44:55.953Z,18.07
2017-07-30T04:46:05.167Z,18.08
2017-07-30T04:47:14.372Z,18.14
2017-07-30T04:48:23.633Z,18.18
2017-07-30T04:49:32.836Z,18.07
2017-07-30T04:50:41.720Z,18.17
2017-07-30T04:51:50.926Z,18.17
2017-07-30T04:52:59.806Z,18.23
2017-07-30T04:54:09.340Z,18.21
2017-07-30T04:55:18.864Z,18.12
2017-07-30T04:56:27.755Z,18.15
2017-07-30T04:57:36.963Z,18.15
2017-07-30T04:58:46.496Z,18.17
2017-07-30T04:59:55.856Z,18.25
2017-07-30T05:01:05.390Z,18.14
2017-07-30T05:02:15.611Z,18.11
2017-07-30T05:03:25.136Z,18.21
2017-07-30T05:04:34.668Z,18.18
2017-07-30T05:05:44.821Z,18.15
2017-07-30T05:06:54.351Z,18.17
2017-07-30T05:08:03.556Z,18.21
2017-07-30T05:09:13.412Z,18.21
2017-07-30T05:10:22.617Z,18.21
2017-07-30T05:11:32.121Z,18.33
2017-07-30T05:12:41.651Z,18.33
2017-07-30T05:13:51.513Z,18.32
2017-07-30T05:15:01.362Z,18.25
2017-07-30T05:16:10.894Z,18.33
2017-07-30T05:17:20.247Z,18.35
2017-07-30T05:18:29.450Z,18.29
2017-07-30T05:19:39.300Z,18.35
2017-07-30T05:20:48.196Z,18.42
2017-07-30T05:21:57.079Z,18.39
2017-07-30T05:23:06.438Z,18.45
2017-07-30T05:24:15.651Z,18.48
2017-07-30T05:25:25.505Z,18.45
2017-07-30T05:26:35.359Z,18.47
2017-07-30T05:27:45.541Z,18.52
2017-07-30T05:28:54.898Z,18.54
2017-07-30T05:30:04.106Z,18.48
2017-07-30T05:31:13.981Z,18.54
2017-07-30T05:32:23.508Z,18.54
2017-07-30T05:33:33.039Z,18.65
2017-07-30T05:34:42.397Z,18.66
2017-07-30T05:35:51.605Z,18.63
2017-07-30T05:37:00.813Z,18.7
2017-07-30T05:38:10.344Z,18.66
2017-07-30T05:39:20.199Z,18.78
2017-07-30T05:40:29.788Z,18.8
2017-07-30T05:41:39.321Z,18.84
2017-07-30T05:42:49.512Z,18.81
2017-07-30T05:43:58.723Z,18.9
2017-07-30T05:45:08.260Z,18.92
2017-07-30T05:46:18.491Z,19.06
2017-07-30T05:47:27.379Z,19.08
2017-07-30T05:48:36.915Z,19.08
2017-07-30T05:49:46.447Z,19.14
2017-07-30T05:50:56.301Z,19.06
2017-07-30T05:52:05.892Z,19.16
2017-07-30T05:53:15.103Z,19.14
2017-07-30T05:54:24.638Z,19.19
2017-07-30T05:55:34.499Z,19.25
2017-07-30T05:56:44.678Z,19.32
2017-07-30T05:57:54.359Z,19.25
2017-07-30T05:59:03.251Z,19.28
2017-07-30T06:00:13.111Z,19.32
2017-07-30T06:01:22.334Z,19.29
2017-07-30T06:02:31.861Z,19.29
2017-07-30T06:03:41.500Z,19.32
2017-07-30T06:04:50.708Z,19.39
2017-07-30T06:05:59.596Z,19.41
2017-07-30T06:07:09.133Z,19.39
2017-07-30T06:08:18.347Z,19.43
2017-07-30T06:09:28.142Z,19.41
2017-07-30T06:10:37.357Z,19.48
2017-07-30T06:11:46.605Z,19.5
2017-07-30T06:12:56.463Z,19.55
2017-07-30T06:14:06.324Z,19.58
2017-07-30T06:15:15.853Z,19.58
2017-07-30T06:16:25.386Z,19.58
2017-07-30T06:17:35.245Z,19.76
2017-07-30T06:18:45.429Z,19.61
2017-07-30T06:19:54.636Z,19.69
2017-07-30T06:21:04.365Z,19.68
2017-07-30T06:22:13.576Z,19.71
2017-07-30T06:23:23.110Z,19.71
2017-07-30T06:24:32.324Z,19.73
2017-07-30T06:25:42.178Z,19.81
2017-07-30T06:26:51.385Z,19.84
2017-07-30T06:28:01.259Z,19.92
2017-07-30T06:29:10.473Z,19.91
2017-07-30T06:30:20.008Z,19.92
2017-07-30T06:31:29.544Z,19.88
2017-07-30T06:32:38.756Z,19.96
2017-07-30T06:33:47.961Z,19.98
2017-07-30T06:34:57.211Z,20.05
2017-07-30T06:36:07.065Z,20.03
2017-07-30T06:37:16.273Z,20.06
2017-07-30T06:38:25.535Z,20.05
2017-07-30T06:39:35.396Z,20.13
2017-07-30T06:40:44.297Z,20.08
2017-07-30T06:41:53.508Z,20.14
2017-07-30T06:43:03.367Z,20.11
2017-07-30T06:44:13.222Z,20.18
2017-07-30T06:45:22.442Z,20.29
2017-07-30T06:46:31.648Z,20.24
2017-07-30T06:47:41.180Z,20.31
2017-07-30T06:48:50.392Z,20.36
2017-07-30T06:49:59.704Z,20.31
2017-07-30T06:51:09.240Z,20.29
2017-07-30T06:52:18.774Z,20.35
2017-07-30T06:53:28.632Z,20.47
2017-07-30T06:54:37.520Z,20.31
2017-07-30T06:55:47.680Z,20.38
2017-07-30T06:56:56.899Z,20.38
2017-07-30T06:58:05.788Z,20.48
2017-07-30T06:59:14.995Z,20.5
2017-07-30T07:00:24.526Z,20.58
2017-07-30T07:01:34.102Z,20.67
2017-07-30T07:02:42.988Z,20.67
2017-07-30T07:03:51.874Z,20.84
2017-07-30T07:05:01.082Z,20.82
2017-07-30T07:06:09.966Z,20.82
2017-07-30T07:07:19.326Z,20.87
2017-07-30T07:08:28.857Z,20.77
2017-07-30T07:09:38.386Z,20.8
2017-07-30T07:10:47.948Z,20.95
2017-07-30T07:11:57.482Z,20.92
2017-07-30T07:13:07.392Z,21.04
2017-07-30T07:14:16.945Z,21.03
2017-07-30T07:15:26.154Z,21.01
2017-07-30T07:16:35.365Z,21.19
2017-07-30T07:17:44.574Z,21.16
2017-07-30T07:18:53.785Z,21.14
2017-07-30T07:20:03.013Z,21.24
2017-07-30T07:21:12.236Z,21.31
2017-07-30T07:22:21.841Z,21.29
2017-07-30T07:23:31.052Z,21.31
2017-07-30T07:24:40.587Z,21.25
2017-07-30T07:25:49.796Z,21.24
2017-07-30T07:26:59.331Z,21.22
2017-07-30T07:28:08.866Z,21.29
2017-07-30T07:29:18.721Z,21.29
2017-07-30T07:30:27.987Z,21.29
2017-07-30T07:31:37.206Z,21.46
2017-07-30T07:32:46.760Z,21.52
2017-07-30T07:33:56.294Z,21.59
2017-07-30T07:35:05.512Z,21.68
2017-07-30T07:36:14.875Z,21.65
2017-07-30T07:37:24.086Z,21.68
2017-07-30T07:38:33.298Z,21.62
2017-07-30T07:39:42.526Z,21.67
2017-07-30T07:40:52.064Z,21.68
2017-07-30T07:42:01.104Z,21.69
2017-07-30T07:43:10.638Z,21.67
2017-07-30T07:44:20.174Z,21.67
2017-07-30T07:45:30.039Z,21.65
2017-07-30T07:46:39.896Z,21.67
2017-07-30T07:47:48.880Z,21.67
2017-07-30T07:48:58.093Z,21.67
2017-07-30T07:50:07.957Z,21.62
2017-07-30T07:51:17.490Z,21.75
2017-07-30T07:52:26.710Z,21.79
2017-07-30T07:53:35.896Z,21.84
2017-07-30T07:54:44.783Z,21.82
2017-07-30T07:55:54.317Z,21.82
2017-07-30T07:57:03.525Z,21.83
2017-07-30T07:58:13.054Z,21.83
2017-07-30T07:59:23.219Z,21.98
2017-07-30T08:00:32.758Z,22
2017-07-30T08:01:41.976Z,21.98
2017-07-30T08:02:51.187Z,22.07
2017-07-30T08:04:00.072Z,22.1
2017-07-30T08:05:09.338Z,22.09
2017-07-30T08:06:19.192Z,22.21
2017-07-30T08:07:28.407Z,22.28
2017-07-30T08:08:37.617Z,22.33
2017-07-30T08:09:46.827Z,22.45
2017-07-30T08:10:56.361Z,22.51
2017-07-30T08:12:05.896Z,22.51
2017-07-30T08:13:14.782Z,22.54
2017-07-30T08:14:24.323Z,22.46
2017-07-30T08:15:33.858Z,22.55
2017-07-30T08:16:42.795Z,22.61
2017-07-30T08:17:52.328Z,22.62
2017-07-30T08:19:01.218Z,22.62
2017-07-30T08:20:10.775Z,22.7
2017-07-30T08:21:19.685Z,22.64
2017-07-30T08:22:28.674Z,22.67
2017-07-30T08:23:37.885Z,22.73
2017-07-30T08:24:47.420Z,22.72
2017-07-30T08:25:56.334Z,22.77
2017-07-30T08:27:05.227Z,22.79
2017-07-30T08:28:14.635Z,22.85
2017-07-30T08:29:24.501Z,22.91
2017-07-30T08:30:33.720Z,22.91
2017-07-30T08:31:43.581Z,22.95
2017-07-30T08:32:52.794Z,23
2017-07-30T08:34:02.158Z,23.02
2017-07-30T08:35:11.693Z,23.1
2017-07-30T08:36:20.927Z,23.1
2017-07-30T08:37:29.813Z,23.16
2017-07-30T08:38:39.668Z,23.17
2017-07-30T08:39:48.602Z,23.22
2017-07-30T08:40:57.809Z,23.27
2017-07-30T08:42:07.337Z,23.19
2017-07-30T08:43:16.550Z,23.2
2017-07-30T08:44:26.404Z,23.2
2017-07-30T08:45:35.619Z,23.33
2017-07-30T08:46:44.835Z,23.48
2017-07-30T08:47:54.688Z,23.5
2017-07-30T08:49:04.221Z,23.48
2017-07-30T08:50:13.435Z,23.53
2017-07-30T08:51:22.424Z,23.53
2017-07-30T08:52:31.643Z,23.51
2017-07-30T08:53:41.188Z,23.57
2017-07-30T08:54:50.079Z,23.68
2017-07-30T08:55:58.967Z,23.68
2017-07-30T08:57:08.555Z,23.72
2017-07-30T08:58:18.141Z,23.75
2017-07-30T08:59:27.353Z,23.87
2017-07-30T09:00:36.243Z,23.85
2017-07-30T09:01:46.103Z,23.98
2017-07-30T09:02:55.466Z,23.9
2017-07-30T09:04:05.649Z,23.91
2017-07-30T09:05:15.508Z,23.98
2017-07-30T09:06:25.365Z,24
2017-07-30T09:07:35.230Z,24.05
2017-07-30T09:08:44.221Z,24.1
2017-07-30T09:09:53.114Z,24.15
2017-07-30T09:11:02.325Z,24.27
2017-07-30T09:12:11.862Z,24.2
2017-07-30T09:13:21.722Z,24.35
2017-07-30T09:14:31.565Z,24.34
2017-07-30T09:15:41.103Z,24.43
2017-07-30T09:16:50.643Z,24.4
2017-07-30T09:17:59.855Z,24.43
2017-07-30T09:19:09.388Z,24.46
2017-07-30T09:20:19.351Z,24.5
2017-07-30T09:21:28.890Z,24.53
2017-07-30T09:22:38.426Z,24.43
2017-07-30T09:23:47.964Z,24.49
2017-07-30T09:24:57.505Z,24.4
2017-07-30T09:26:07.097Z,24.45
2017-07-30T09:27:16.313Z,24.52
2017-07-30T09:28:25.849Z,24.57
2017-07-30T09:29:35.385Z,24.62
2017-07-30T09:30:44.595Z,24.67
2017-07-30T09:31:54.835Z,24.76
2017-07-30T09:33:04.374Z,24.9
2017-07-30T09:34:13.268Z,24.81
2017-07-30T09:35:22.804Z,24.81
2017-07-30T09:36:32.672Z,24.9
2017-07-30T09:37:41.858Z,24.8
2017-07-30T09:38:51.397Z,24.8
2017-07-30T09:40:00.285Z,24.85
2017-07-30T09:41:09.825Z,24.85
2017-07-30T09:42:18.709Z,24.85
2017-07-30T09:43:28.496Z,24.81
2017-07-30T09:44:38.684Z,24.8
2017-07-30T09:45:48.222Z,24.88
2017-07-30T09:46:57.111Z,24.83
2017-07-30T09:48:06.001Z,24.73
2017-07-30T09:49:15.734Z,24.8
2017-07-30T09:50:24.950Z,24.9
2017-07-30T09:51:34.170Z,25.03
2017-07-30T09:52:43.704Z,25.06
2017-07-30T09:53:52.594Z,25.1
2017-07-30T09:55:01.804Z,25.1
2017-07-30T09:56:11.668Z,25.15
2017-07-30T09:57:21.207Z,25.14
2017-07-30T09:58:30.746Z,25.1
2017-07-30T09:59:39.962Z,25.08
2017-07-30T10:00:49.323Z,25.1
2017-07-30T10:01:58.533Z,25.15
2017-07-30T10:03:08.393Z,25.2
2017-07-30T10:04:18.584Z,25.25
2017-07-30T10:05:27.793Z,25.21
2017-07-30T10:06:37.332Z,25.24
2017-07-30T10:07:47.189Z,25.27
2017-07-30T10:08:56.402Z,25.24
2017-07-30T10:10:05.617Z,25.32
2017-07-30T10:11:15.157Z,25.39
2017-07-30T10:12:24.523Z,25.36
2017-07-30T10:13:34.058Z,25.46
2017-07-30T10:14:43.594Z,25.36
2017-07-30T10:15:53.133Z,25.4
2017-07-30T10:17:02.348Z,25.52
2017-07-30T10:18:12.264Z,25.51
2017-07-30T10:19:21.798Z,25.4
2017-07-30T10:20:30.689Z,25.5
2017-07-30T10:21:39.899Z,25.47
2017-07-30T10:22:48.788Z,25.52
2017-07-30T10:23:58.475Z,25.61
2017-07-30T10:25:08.343Z,25.65
2017-07-30T10:26:17.885Z,25.6
2017-07-30T10:27:27.103Z,25.39
2017-07-30T10:28:35.994Z,25.42
2017-07-30T10:29:45.545Z,25.5
2017-07-30T10:30:55.079Z,25.47
2017-07-30T10:32:03.965Z,25.58
2017-07-30T10:33:13.503Z,25.58
2017-07-30T10:34:22.395Z,25.55
2017-07-30T10:35:32.232Z,25.45
2017-07-30T10:36:41.773Z,25.4
2017-07-30T10:37:50.994Z,25.42
2017-07-30T10:39:00.211Z,25.3
2017-07-30T10:40:09.100Z,25.35
2017-07-30T10:41:18.789Z,25.32
2017-07-30T10:42:27.677Z,25.38
2017-07-30T10:43:37.215Z,25.4
2017-07-30T10:44:46.434Z,25.27
2017-07-30T10:45:55.644Z,25.24
2017-07-30T10:47:05.384Z,25.27
2017-07-30T10:48:14.278Z,25.33
2017-07-30T10:49:23.494Z,25.28
2017-07-30T10:50:32.703Z,25.21
2017-07-30T10:51:41.920Z,25.3
2017-07-30T10:52:51.013Z,25.39
2017-07-30T10:54:00.226Z,25.28
2017-07-30T10:55:09.438Z,25.38
2017-07-30T10:56:18.977Z,25.33
2017-07-30T10:57:28.517Z,25.47
2017-07-30T10:58:38.162Z,25.39
2017-07-30T10:59:47.055Z,25.42
2017-07-30T11:00:56.596Z,25.39
2017-07-30T11:02:05.491Z,25.51
2017-07-30T11:03:14.707Z,25.54
2017-07-30T11:04:24.722Z,25.5
2017-07-30T11:05:33.613Z,25.52
2017-07-30T11:06:42.828Z,25.61
2017-07-30T11:07:52.689Z,25.62
2017-07-30T11:09:02.555Z,25.64
2017-07-30T11:10:12.294Z,25.69
2017-07-30T11:11:21.187Z,25.76
2017-07-30T11:12:30.402Z,25.77
2017-07-30T11:13:39.622Z,25.75
2017-07-30T11:14:48.831Z,25.79
2017-07-30T11:15:58.094Z,25.97
2017-07-30T11:17:07.638Z,26.07
2017-07-30T11:18:17.500Z,25.98
2017-07-30T11:19:27.380Z,26.09
2017-07-30T11:20:37.566Z,26.07
2017-07-30T11:21:47.102Z,26.12
2017-07-30T11:22:56.321Z,26.21
2017-07-30T11:24:05.221Z,26.29
2017-07-30T11:25:14.758Z,26.1
2017-07-30T11:26:24.296Z,26.28
2017-07-30T11:27:33.337Z,26.32
2017-07-30T11:28:43.203Z,26.26
2017-07-30T11:29:52.427Z,26.12
2017-07-30T11:31:01.640Z,26.23
2017-07-30T11:32:11.181Z,26.26
2017-07-30T11:33:20.224Z,26.2
2017-07-30T11:34:29.759Z,26.12
2017-07-30T11:35:38.971Z,26.15
2017-07-30T11:36:48.218Z,26.1
2017-07-30T11:37:57.108Z,26.09
2017-07-30T11:39:06.843Z,26.1
2017-07-30T11:40:16.056Z,26.07
2017-07-30T11:41:25.277Z,26.13
2017-07-30T11:42:34.822Z,25.94
2017-07-30T11:43:44.364Z,25.98
2017-07-30T11:44:53.824Z,25.98
2017-07-30T11:46:02.714Z,25.99
2017-07-30T11:47:12.248Z,26.05
2017-07-30T11:48:21.463Z,26.12
2017-07-30T11:49:30.357Z,25.8
2017-07-30T11:50:39.820Z,25.9
2017-07-30T11:51:48.709Z,25.85
2017-07-30T11:52:57.922Z,25.76
2017-07-30T11:54:06.815Z,25.91
2017-07-30T11:55:16.350Z,25.87
2017-07-30T11:56:25.618Z,25.83
2017-07-30T11:57:34.827Z,25.95
2017-07-30T11:58:43.716Z,26.05
2017-07-30T11:59:53.573Z,26.13
2017-07-30T12:01:03.108Z,26.09
2017-07-30T12:02:12.643Z,26.02
2017-07-30T12:03:22.182Z,26.1
2017-07-30T12:04:31.723Z,26.13
2017-07-30T12:05:41.580Z,26.01
2017-07-30T12:06:50.477Z,26.13
2017-07-30T12:07:59.419Z,26.12
2017-07-30T12:09:09.616Z,26.1
2017-07-30T12:10:19.177Z,26.1
2017-07-30T12:11:28.073Z,26.07
2017-07-30T12:12:37.284Z,26.18
2017-07-30T12:13:46.878Z,26.15
2017-07-30T12:14:56.096Z,26.25
2017-07-30T12:16:05.631Z,26.23
2017-07-30T12:17:15.174Z,26.3
2017-07-30T12:18:24.070Z,26.45
2017-07-30T12:19:33.122Z,26.54
2017-07-30T12:20:42.989Z,26.52
2017-07-30T12:21:51.886Z,26.65
2017-07-30T12:23:01.782Z,26.67
2017-07-30T12:24:11.324Z,26.73
2017-07-30T12:25:20.866Z,26.66
2017-07-30T12:26:30.081Z,26.66
2017-07-30T12:27:39.295Z,26.73
2017-07-30T12:28:48.524Z,26.91
2017-07-30T12:29:58.386Z,26.94
2017-07-30T12:31:07.605Z,27.02
2017-07-30T12:32:16.821Z,27.06
2017-07-30T12:33:27.010Z,27.14
2017-07-30T12:34:36.229Z,27.1
2017-07-30T12:35:45.785Z,27.12
2017-07-30T12:36:55.495Z,27.21
2017-07-30T12:38:05.064Z,27.14
2017-07-30T12:39:14.603Z,27.28
2017-07-30T12:40:24.144Z,27.32
2017-07-30T12:41:33.687Z,27.47
2017-07-30T12:42:43.556Z,27.54
2017-07-30T12:43:52.781Z,27.74
2017-07-30T12:45:02.327Z,27.79
2017-07-30T12:46:11.875Z,27.81
2017-07-30T12:47:21.097Z,27.82
2017-07-30T12:48:30.471Z,27.88
2017-07-30T12:49:39.696Z,27.85
2017-07-30T12:50:48.925Z,28.09
2017-07-30T12:51:57.825Z,28.29
2017-07-30T12:53:06.726Z,28.33
2017-07-30T12:54:16.102Z,28.4
2017-07-30T12:55:25.649Z,28.33
2017-07-30T12:56:34.871Z,28.21
2017-07-30T12:57:44.412Z,28.17
2017-07-30T12:58:53.957Z,27.85
2017-07-30T13:00:03.329Z,27.82
2017-07-30T13:01:13.529Z,27.74
2017-07-30T13:02:22.756Z,27.82
2017-07-30T13:03:31.977Z,27.67
2017-07-30T13:04:40.875Z,27.57
2017-07-30T13:05:50.142Z,27.6
2017-07-30T13:06:59.682Z,27.79
2017-07-30T13:08:08.903Z,28.09
2017-07-30T13:09:17.797Z,28.07
2017-07-30T13:10:26.692Z,28.09
2017-07-30T13:11:36.019Z,28.15
2017-07-30T13:12:45.889Z,28.36
2017-07-30T13:13:55.121Z,28.36
2017-07-30T13:15:04.677Z,28.3
2017-07-30T13:16:14.879Z,28.36
2017-07-30T13:17:24.108Z,28.12
2017-07-30T13:18:33.336Z,28.04
2017-07-30T13:19:43.207Z,27.99
2017-07-30T13:20:52.754Z,28.03
2017-07-30T13:22:02.324Z,27.99
2017-07-30T13:23:12.031Z,28
2017-07-30T13:24:21.253Z,27.99
2017-07-30T13:25:30.793Z,28.17
2017-07-30T13:26:40.013Z,28.21
2017-07-30T13:27:49.234Z,27.9
2017-07-30T13:28:58.617Z,28.21
2017-07-30T13:30:08.484Z,28.4
2017-07-30T13:31:17.712Z,28.31
2017-07-30T13:32:26.610Z,28.36
2017-07-30T13:33:36.148Z,28.07
2017-07-30T13:34:45.777Z,28
2017-07-30T13:35:55.653Z,27.84
2017-07-30T13:37:04.875Z,27.88
2017-07-30T13:38:14.417Z,27.77
2017-07-30T13:39:23.636Z,27.99
2017-07-30T13:40:33.277Z,27.88
2017-07-30T13:41:42.832Z,27.88
2017-07-30T13:42:52.055Z,27.94
2017-07-30T13:44:01.278Z,27.99
2017-07-30T13:45:10.828Z,27.85
2017-07-30T13:46:20.049Z,27.84
2017-07-30T13:47:29.912Z,27.74
2017-07-30T13:48:39.453Z,27.67
2017-07-30T13:49:48.993Z,27.55
2017-07-30T13:50:57.889Z,27.44
2017-07-30T13:52:07.211Z,27.46
2017-07-30T13:53:16.436Z,27.5
2017-07-30T13:54:25.652Z,27.55
2017-07-30T13:55:35.191Z,27.54
2017-07-30T13:56:44.732Z,27.55
2017-07-30T13:57:54.569Z,27.66
2017-07-30T13:59:04.440Z,27.7
2017-07-30T14:00:13.699Z,27.69
2017-07-30T14:01:23.567Z,27.47
2017-07-30T14:02:33.108Z,27.44
2017-07-30T14:03:42.433Z,27.47
2017-07-30T14:04:51.649Z,27.27
2017-07-30T14:06:01.520Z,27.47
2017-07-30T14:07:11.389Z,27.55
2017-07-30T14:08:20.610Z,27.78
2017-07-30T14:09:29.981Z,28.06
2017-07-30T14:10:38.874Z,28.19
2017-07-30T14:11:48.093Z,28.31
2017-07-30T14:12:57.642Z,28.55
2017-07-30T14:14:07.185Z,28.61
2017-07-30T14:15:16.505Z,28.68
2017-07-30T14:16:25.727Z,28.73
2017-07-30T14:17:36.247Z,28.77
2017-07-30T14:18:46.116Z,28.8
2017-07-30T14:19:55.666Z,28.89
2017-07-30T14:21:05.265Z,29.06
2017-07-30T14:22:14.165Z,29.02
2017-07-30T14:23:23.399Z,29.08
2017-07-30T14:24:33.266Z,29.14
2017-07-30T14:25:43.134Z,29.06
2017-07-30T14:26:52.355Z,28.89
2017-07-30T14:28:01.250Z,28.81
2017-07-30T14:29:11.119Z,28.64
2017-07-30T14:30:20.988Z,28.33
2017-07-30T14:31:30.531Z,28.21
2017-07-30T14:32:40.139Z,28.11
2017-07-30T14:33:49.358Z,28.03
2017-07-30T14:34:58.250Z,27.84
2017-07-30T14:36:07.468Z,27.78
2017-07-30T14:37:17.010Z,27.7
2017-07-30T14:38:27.072Z,27.62
2017-07-30T14:39:36.617Z,27.5
2017-07-30T14:40:45.516Z,27.44
2017-07-30T14:41:54.733Z,27.4
2017-07-30T14:43:04.273Z,27.27
2017-07-30T14:44:14.339Z,27.27
2017-07-30T14:45:23.552Z,27.41
2017-07-30T14:46:32.446Z,27.41
2017-07-30T14:47:41.340Z,27.31
2017-07-30T14:48:51.205Z,27.28
2017-07-30T14:50:01.216Z,27.34
2017-07-30T14:51:11.081Z,27.36
2017-07-30T14:52:20.622Z,27.36
2017-07-30T14:53:30.161Z,27.37
2017-07-30T14:54:39.386Z,27.44
2017-07-30T14:55:48.909Z,27.37
2017-07-30T14:56:58.451Z,27.49
2017-07-30T14:58:08.015Z,27.6